Alorton, Illinois
Current Conditions -  °F | °C
As of 10:53 AM on Thursday 18 Dec 2014 (Local Time) from KCPS Reporting Station
Light Snow Light Snow  
Wind Chill: 33°   Ceiling: 1100
Heat Index: 33°   Visibility: 3mi
Dew Point: 28°   Wind: 3mph
Humidity: 82%   Direction: 70°ENE
Pressure: 30.3"   Gusts: NA
Location:  38.5841°N, 90.126°W
Report Text: KCPS 181653Z 07003KT 3SM -SN BKN011 OVC055 01/M02 A3030 RMK AO2 SLP264 P0000 T00061022
Loading
Personal Weather Stations






























Interactive Weather Map New forecast layout! Learn more

10-Day Weather Forecast

Advertisements
Track Severe Weather on mobile